Time;durP1;ratioP1;P1;durP2;ratioP2;P2;SDS_P1;SDS_P2;PMS_P1;PMS_P2;Temp;Humidity;BMP_temperature;BMP_pressure;BME280_temperature;BME280_humidity;BME280_pressure;Samples;Min_cycle;Max_cycle;Signal;HPM_P1;HPM_P2
2023/07/15 00:01:16;;;;;;;;;;;18.60;1.00;;;;;;5029353;28;20834;-83
2023/07/15 00:03:42;;;;;;;;;;;18.70;1.00;;;;;;5027208;28;19939;-81
2023/07/15 00:06:08;;;;;;;;;;;18.70;1.00;;;;;;5028606;28;20058;-86
2023/07/15 00:08:34;;;;;;;;;;;18.70;1.00;;;;;;5026361;28;19928;-83
2023/07/15 00:11:01;;;;;;;;;;;18.70;1.00;;;;;;5016212;28;20938;-81
2023/07/15 00:13:26;;;;;;;;;;;18.70;1.00;;;;;;5003806;28;19940;-79
2023/07/15 00:15:53;;;;;;;;;;;18.80;1.00;;;;;;5024382;28;19928;-78
2023/07/15 00:18:19;;;;;;;;;;;18.70;1.00;;;;;;5041854;28;20560;-84
2023/07/15 00:20:45;;;;;;;;;;;18.80;1.00;;;;;;5041445;28;20476;-81
2023/07/15 00:23:15;;;;;;;;;;;18.80;1.00;;;;;;5023442;28;19929;-78
2023/07/15 00:25:40;;;;;;;;;;;18.80;1.00;;;;;;5009045;28;19929;-77
2023/07/15 00:28:06;;;;;;;;;;;18.80;1.00;;;;;;5023047;28;19939;-81
2023/07/15 00:30:31;;;;;;;;;;;18.80;1.00;;;;;;5004106;28;19936;-78
2023/07/15 00:32:57;;;;;;;;;;;18.80;1.00;;;;;;5022247;28;19985;-81
2023/07/15 00:35:28;;;;;;;;;;;18.80;1.00;;;;;;5031290;28;20399;-80
2023/07/15 00:37:54;;;;;;;;;;;18.90;1.00;;;;;;5029741;28;19957;-85
2023/07/15 00:40:20;;;;;;;;;;;18.90;1.00;;;;;;5033904;28;20356;-77
2023/07/15 00:43:04;;;;;;;;;;;18.90;1.00;;;;;;4992938;28;20004;-77
2023/07/15 00:45:30;;;;;;;;;;;18.90;1.00;;;;;;5026233;28;20020;-78
2023/07/15 00:48:16;;;;;;;;;;;18.90;1.00;;;;;;5020711;28;19929;-79
2023/07/15 00:50:43;;;;;;;;;;;18.90;1.00;;;;;;5058336;28;19928;-81
2023/07/15 00:53:09;;;;;;;;;;;18.90;99.90;;;;;;5026123;28;19951;-77
2023/07/15 00:55:35;;;;;;;;;;;18.90;1.00;;;;;;5043143;28;20045;-77
2023/07/15 00:58:01;;;;;;;;;;;19.00;1.00;;;;;;5015375;28;21652;-83
2023/07/15 01:00:26;;;;;;;;;;;19.00;1.00;;;;;;5024746;28;19986;-79
2023/07/15 01:02:52;;;;;;;;;;;19.00;1.00;;;;;;5025773;28;21665;-78
2023/07/15 01:05:18;;;;;;;;;;;19.00;1.00;;;;;;5017270;28;19940;-79
2023/07/15 01:07:43;;;;;;;;;;;19.00;1.00;;;;;;5014479;28;20027;-79
2023/07/15 01:10:09;;;;;;;;;;;19.10;1.00;;;;;;5009380;28;19931;-79
2023/07/15 01:12:35;;;;;;;;;;;19.10;1.00;;;;;;5027325;28;19961;-80
2023/07/15 01:15:00;;;;;;;;;;;19.10;1.00;;;;;;5028529;28;20003;-82
2023/07/15 01:17:26;;;;;;;;;;;19.10;1.00;;;;;;4994847;28;20315;-80
2023/07/15 01:19:53;;;;;;;;;;;19.10;1.00;;;;;;5029180;28;19940;-78
2023/07/15 01:22:19;;;;;;;;;;;19.10;1.00;;;;;;5029130;28;20375;-78
2023/07/15 01:24:45;;;;;;;;;;;19.10;1.00;;;;;;5025528;28;20310;-80
2023/07/15 01:27:11;;;;;;;;;;;19.10;1.00;;;;;;5013015;28;20423;-78
2023/07/15 01:29:37;;;;;;;;;;;19.10;1.00;;;;;;5009366;28;21234;-79
2023/07/15 01:32:03;;;;;;;;;;;19.30;1.00;;;;;;5043634;28;19932;-77
2023/07/15 01:34:30;;;;;;;;;;;19.10;99.90;;;;;;5011136;28;19932;-77
2023/07/15 01:36:56;;;;;;;;;;;19.20;99.90;;;;;;5025258;28;19994;-77
2023/07/15 01:39:22;;;;;;;;;;;19.20;99.90;;;;;;4990839;28;19932;-79
2023/07/15 01:41:48;;;;;;;;;;;19.20;99.90;;;;;;5017512;28;20401;-78
2023/07/15 01:44:14;;;;;;;;;;;19.30;99.90;;;;;;5014689;28;19937;-84
2023/07/15 01:46:40;;;;;;;;;;;19.30;99.90;;;;;;5008408;28;19939;-90
2023/07/15 01:49:07;;;;;;;;;;;19.30;99.90;;;;;;5042896;28;21272;-87
2023/07/15 01:51:33;;;;;;;;;;;19.30;99.90;;;;;;5060020;28;20009;-93
2023/07/15 01:53:59;;;;;;;;;;;19.30;99.90;;;;;;5056946;28;20021;-83
2023/07/15 01:56:25;;;;;;;;;;;19.20;99.90;;;;;;5025309;28;20563;-83
2023/07/15 01:58:50;;;;;;;;;;;19.70;99.90;;;;;;5026557;28;19974;-83
2023/07/15 02:01:16;;;;;;;;;;;19.20;99.90;;;;;;5028781;28;20001;-79
2023/07/15 02:03:41;;;;;;;;;;;19.20;99.90;;;;;;5013097;28;20551;-84
2023/07/15 02:06:07;;;;;;;;;;;19.20;99.90;;;;;;5004135;28;19932;-84
2023/07/15 02:08:33;;;;;;;;;;;19.20;99.90;;;;;;5008496;28;21845;-82
2023/07/15 02:10:58;;;;;;;;;;;19.10;99.90;;;;;;5007260;28;19933;-81
2023/07/15 02:13:25;;;;;;;;;;;19.20;99.90;;;;;;5012861;28;20382;-83
2023/07/15 02:15:51;;;;;;;;;;;19.20;99.90;;;;;;4992128;28;20070;-82
2023/07/15 02:18:17;;;;;;;;;;;19.20;99.90;;;;;;4996945;28;19936;-82
2023/07/15 02:20:42;;;;;;;;;;;19.20;99.90;;;;;;5005792;28;20011;-83
2023/07/15 02:23:11;;;;;;;;;;;19.20;99.90;;;;;;5013513;28;20409;-85
2023/07/15 02:25:37;;;;;;;;;;;19.20;99.90;;;;;;5045676;28;20385;-84
2023/07/15 02:28:02;;;;;;;;;;;19.20;99.90;;;;;;4995746;28;20405;-84
2023/07/15 02:30:28;;;;;;;;;;;19.20;99.90;;;;;;5010990;28;20369;-83
2023/07/15 02:32:54;;;;;;;;;;;19.20;99.90;;;;;;5043458;28;20042;-85
2023/07/15 02:35:20;;;;;;;;;;;19.30;99.90;;;;;;5010567;28;19921;-84
2023/07/15 02:37:48;;;;;;;;;;;19.30;99.90;;;;;;4997387;28;20474;-85
2023/07/15 02:40:14;;;;;;;;;;;19.30;99.90;;;;;;5024086;28;20049;-85
2023/07/15 02:42:40;;;;;;;;;;;19.40;99.90;;;;;;5024078;28;19985;-81
2023/07/15 02:45:15;;;;;;;;;;;19.50;1.00;;;;;;5028550;28;19928;-80
2023/07/15 02:47:41;;;;;;;;;;;19.50;1.00;;;;;;5028205;28;20394;-83
2023/07/15 02:50:08;;;;;;;;;;;19.60;1.00;;;;;;5021816;28;19928;-80
2023/07/15 02:52:36;;;;;;;;;;;19.70;1.00;;;;;;5053971;28;19925;-82
2023/07/15 02:55:06;;;;;;;;;;;19.70;99.90;;;;;;5048944;28;19932;-79
2023/07/15 02:57:32;;;;;;;;;;;19.90;99.90;;;;;;5020643;28;20535;-83
2023/07/15 03:00:00;;;;;;;;;;;19.90;99.90;;;;;;5038419;28;20790;-80
2023/07/15 03:02:28;;;;;;;;;;;20.00;99.90;;;;;;5054908;28;19932;-86
2023/07/15 03:04:54;;;;;;;;;;;20.60;99.90;;;;;;5051985;28;19933;-85
2023/07/15 03:07:19;;;;;;;;;;;20.10;99.90;;;;;;5015948;28;19936;-80
2023/07/15 03:09:45;;;;;;;;;;;20.10;99.90;;;;;;5019096;28;19929;-83
2023/07/15 03:12:11;;;;;;;;;;;20.20;1.00;;;;;;5005537;28;20340;-78
2023/07/15 03:14:36;;;;;;;;;;;20.20;99.90;;;;;;5013621;28;19936;-85
2023/07/15 03:17:02;;;;;;;;;;;20.20;1.00;;;;;;5003543;28;20399;-81
2023/07/15 03:19:30;;;;;;;;;;;20.20;99.90;;;;;;5017765;28;20054;-87
2023/07/15 03:21:56;;;;;;;;;;;20.20;99.90;;;;;;5023022;28;19929;-82
2023/07/15 03:24:22;;;;;;;;;;;20.20;1.00;;;;;;5026364;28;19932;-85
2023/07/15 03:26:48;;;;;;;;;;;20.20;1.00;;;;;;5024353;28;20387;-85
2023/07/15 03:29:14;;;;;;;;;;;20.20;1.00;;;;;;5019443;28;19939;-88
2023/07/15 03:31:39;;;;;;;;;;;20.10;99.90;;;;;;5010263;28;20285;-82
2023/07/15 03:34:05;;;;;;;;;;;20.10;1.00;;;;;;5018313;28;20695;-86
2023/07/15 03:36:31;;;;;;;;;;;20.10;1.00;;;;;;5028351;28;19936;-77
2023/07/15 03:38:56;;;;;;;;;;;20.10;1.00;;;;;;5009990;28;19940;-79
2023/07/15 03:41:22;;;;;;;;;;;20.10;1.00;;;;;;5015368;28;19932;-81
2023/07/15 03:43:47;;;;;;;;;;;20.20;1.00;;;;;;5002355;28;20274;-81
2023/07/15 03:46:13;;;;;;;;;;;20.10;1.00;;;;;;5018601;28;19928;-83
2023/07/15 03:48:39;;;;;;;;;;;20.10;1.00;;;;;;5014240;28;20424;-82
2023/07/15 03:51:06;;;;;;;;;;;20.10;1.00;;;;;;5018005;28;19929;-85
2023/07/15 03:53:32;;;;;;;;;;;20.10;1.00;;;;;;5032804;28;19932;-83
2023/07/15 03:55:58;;;;;;;;;;;20.00;1.00;;;;;;5053534;28;19932;-90
2023/07/15 03:58:24;;;;;;;;;;;20.00;1.00;;;;;;5041216;28;20507;-83
2023/07/15 04:00:49;;;;;;;;;;;20.00;1.00;;;;;;5041981;28;19932;-84
2023/07/15 04:03:15;;;;;;;;;;;20.00;1.00;;;;;;5043446;28;19939;-87
2023/07/15 04:05:40;;;;;;;;;;;20.00;1.00;;;;;;5007793;28;19971;-85
2023/07/15 04:08:06;;;;;;;;;;;19.90;1.00;;;;;;5032630;28;19933;-84
2023/07/15 04:10:32;;;;;;;;;;;19.90;1.00;;;;;;5015173;28;20516;-85
2023/07/15 04:12:57;;;;;;;;;;;19.90;1.00;;;;;;5044938;28;19932;-85
2023/07/15 04:15:23;;;;;;;;;;;19.90;1.00;;;;;;5012378;28;19933;-83
2023/07/15 04:17:49;;;;;;;;;;;20.00;1.00;;;;;;4997785;28;20397;-83
2023/07/15 04:20:17;;;;;;;;;;;20.00;1.00;;;;;;5011452;28;19932;-83
2023/07/15 04:22:43;;;;;;;;;;;20.10;1.00;;;;;;4979420;28;19959;-83
2023/07/15 04:25:11;;;;;;;;;;;20.20;1.00;;;;;;5028053;28;20071;-82
2023/07/15 04:27:37;;;;;;;;;;;20.20;1.00;;;;;;5013283;28;19932;-84
2023/07/15 04:30:04;;;;;;;;;;;20.30;1.00;;;;;;5013351;28;19932;-83
2023/07/15 04:32:29;;;;;;;;;;;20.30;1.00;;;;;;4997146;28;19935;-84
2023/07/15 04:34:55;;;;;;;;;;;20.30;1.00;;;;;;5047214;28;19932;-83
2023/07/15 04:37:20;;;;;;;;;;;20.40;1.00;;;;;;5011099;28;19928;-82
2023/07/15 04:39:46;;;;;;;;;;;20.40;1.00;;;;;;5017251;28;19932;-80
2023/07/15 04:42:12;;;;;;;;;;;20.40;1.00;;;;;;5013456;28;20251;-83
2023/07/15 04:44:37;;;;;;;;;;;20.40;1.00;;;;;;4996773;28;21164;-83
2023/07/15 04:47:03;;;;;;;;;;;20.40;1.00;;;;;;5031145;28;19935;-80
2023/07/15 04:49:29;;;;;;;;;;;20.40;1.00;;;;;;5049568;28;19932;-84
2023/07/15 04:51:55;;;;;;;;;;;20.40;1.00;;;;;;5012160;28;19929;-83
2023/07/15 04:54:20;;;;;;;;;;;20.40;1.00;;;;;;5015080;28;19933;-85
2023/07/15 04:56:46;;;;;;;;;;;20.40;1.00;;;;;;5017976;28;20525;-85
2023/07/15 04:59:12;;;;;;;;;;;20.40;1.00;;;;;;5034675;28;19931;-81
2023/07/15 05:01:38;;;;;;;;;;;20.40;1.00;;;;;;5046272;28;20441;-84
2023/07/15 05:04:03;;;;;;;;;;;20.30;1.00;;;;;;5013410;28;20425;-81
2023/07/15 05:06:29;;;;;;;;;;;20.40;1.00;;;;;;5034387;28;19976;-79
2023/07/15 05:08:55;;;;;;;;;;;20.40;1.00;;;;;;5048670;28;20279;-83
2023/07/15 05:11:21;;;;;;;;;;;20.40;1.00;;;;;;5017673;28;19925;-84
2023/07/15 05:13:47;;;;;;;;;;;20.50;1.00;;;;;;5014832;28;19932;-77
2023/07/15 05:16:14;;;;;;;;;;;20.50;1.00;;;;;;4998360;28;19932;-77
2023/07/15 05:18:43;;;;;;;;;;;20.60;1.90;;;;;;5018196;28;20058;-77
2023/07/15 05:21:09;;;;;;;;;;;20.60;1.00;;;;;;5033476;28;19932;-76
2023/07/15 05:23:34;;;;;;;;;;;20.70;1.00;;;;;;5014464;28;20558;-76
2023/07/15 05:26:00;;;;;;;;;;;20.70;1.00;;;;;;5032438;28;20479;-77
2023/07/15 05:28:30;;;;;;;;;;;20.70;1.00;;;;;;5017861;28;20046;-77
2023/07/15 05:30:56;;;;;;;;;;;20.80;1.00;;;;;;5014871;28;20340;-86
2023/07/15 05:33:22;;;;;;;;;;;20.70;1.00;;;;;;5001102;28;19983;-85
2023/07/15 05:35:48;;;;;;;;;;;20.70;1.00;;;;;;5034849;28;19931;-85
2023/07/15 05:38:13;;;;;;;;;;;20.70;1.00;;;;;;5058254;28;22127;-87
2023/07/15 05:40:42;;;;;;;;;;;20.70;1.00;;;;;;5019799;28;19984;-85
2023/07/15 05:43:08;;;;;;;;;;;20.80;1.00;;;;;;5020815;28;20015;-84
2023/07/15 05:45:34;;;;;;;;;;;20.80;1.00;;;;;;5019981;28;20033;-86
2023/07/15 05:47:59;;;;;;;;;;;20.90;1.00;;;;;;5047755;28;19929;-84
2023/07/15 05:50:25;;;;;;;;;;;21.00;1.00;;;;;;5024666;28;19929;-85
2023/07/15 05:52:52;;;;;;;;;;;21.10;1.00;;;;;;5030519;28;20007;-84
2023/07/15 05:55:19;;;;;;;;;;;21.10;1.00;;;;;;5012034;28;19951;-84
2023/07/15 05:57:44;;;;;;;;;;;21.20;1.00;;;;;;5065266;28;20011;-83
2023/07/15 06:00:10;;;;;;;;;;;21.10;1.00;;;;;;5030084;28;19939;-84
2023/07/15 06:02:38;;;;;;;;;;;21.20;1.00;;;;;;5028672;28;20356;-84
2023/07/15 06:05:04;;;;;;;;;;;21.20;1.00;;;;;;5066232;28;19982;-84
2023/07/15 06:07:30;;;;;;;;;;;21.20;1.00;;;;;;5051051;28;19959;-84
2023/07/15 06:09:55;;;;;;;;;;;21.30;1.00;;;;;;5062575;28;19959;-85
2023/07/15 06:12:21;;;;;;;;;;;21.30;1.00;;;;;;5030079;28;20372;-83
2023/07/15 06:14:46;;;;;;;;;;;21.30;1.00;;;;;;5035352;28;19929;-83
2023/07/15 06:17:12;;;;;;;;;;;21.30;1.00;;;;;;5066535;28;20066;-85
2023/07/15 06:19:38;;;;;;;;;;;21.30;1.00;;;;;;5017112;28;19924;-84
2023/07/15 06:22:03;;;;;;;;;;;21.30;1.00;;;;;;5048181;28;19932;-84
2023/07/15 06:24:29;;;;;;;;;;;21.30;1.00;;;;;;5032005;28;19990;-84
2023/07/15 06:26:55;;;;;;;;;;;21.30;1.00;;;;;;5038723;28;20011;-84
2023/07/15 06:29:20;;;;;;;;;;;21.30;1.00;;;;;;5029691;28;19925;-84
2023/07/15 06:31:46;;;;;;;;;;;21.20;1.00;;;;;;5031831;28;19998;-84
2023/07/15 06:34:12;;;;;;;;;;;21.20;1.00;;;;;;5028766;28;19941;-84
2023/07/15 06:36:37;;;;;;;;;;;21.20;1.00;;;;;;5032474;28;19947;-85
2023/07/15 06:39:03;;;;;;;;;;;21.20;1.00;;;;;;5029155;28;19962;-84
2023/07/15 06:41:29;;;;;;;;;;;21.10;1.00;;;;;;5060660;28;19944;-84
2023/07/15 06:43:54;;;;;;;;;;;21.10;1.00;;;;;;5032020;28;20726;-83
2023/07/15 06:46:20;;;;;;;;;;;21.10;1.00;;;;;;5028146;28;19925;-83
2023/07/15 06:48:45;;;;;;;;;;;21.10;1.00;;;;;;5029586;28;19929;-84
2023/07/15 06:51:14;;;;;;;;;;;21.20;1.00;;;;;;5047264;28;19963;-82
2023/07/15 06:53:40;;;;;;;;;;;21.20;1.00;;;;;;5028579;28;19925;-83
2023/07/15 06:56:06;;;;;;;;;;;21.30;1.00;;;;;;5031073;28;19948;-82
2023/07/15 06:58:31;;;;;;;;;;;21.40;1.00;;;;;;5030200;28;19939;-84
2023/07/15 07:00:57;;;;;;;;;;;21.40;1.00;;;;;;5050282;28;20023;-84
2023/07/15 07:03:23;;;;;;;;;;;21.50;1.00;;;;;;5046149;28;19924;-80
2023/07/15 07:05:48;;;;;;;;;;;21.50;99.90;;;;;;5029007;28;20009;-80
2023/07/15 07:08:14;;;;;;;;;;;21.50;99.90;;;;;;5031843;28;20372;-80
2023/07/15 07:10:40;;;;;;;;;;;21.50;99.90;;;;;;5011841;28;21050;-82
2023/07/15 07:13:05;;;;;;;;;;;21.40;99.90;;;;;;5027021;28;19929;-86
2023/07/15 07:15:31;;;;;;;;;;;21.30;1.00;;;;;;5032151;28;20401;-81
2023/07/15 07:17:57;;;;;;;;;;;21.20;1.00;;;;;;5016724;28;19928;-81
2023/07/15 07:20:23;;;;;;;;;;;21.10;99.90;;;;;;5033222;28;19921;-81
2023/07/15 07:22:48;;;;;;;;;;;21.10;99.90;;;;;;5047229;28;19924;-81
2023/07/15 07:25:14;;;;;;;;;;;21.10;99.90;;;;;;5017358;28;19931;-81
2023/07/15 07:27:39;;;;;;;;;;;21.10;1.00;;;;;;5047236;28;19929;-84
2023/07/15 07:30:06;;;;;;;;;;;21.20;99.90;;;;;;5014975;28;20390;-83
2023/07/15 07:32:31;;;;;;;;;;;21.30;1.00;;;;;;5029140;28;19950;-83
2023/07/15 07:34:58;;;;;;;;;;;21.40;99.90;;;;;;5029288;28;19928;-81
2023/07/15 07:37:23;;;;;;;;;;;21.40;99.90;;;;;;5045873;28;20388;-81
2023/07/15 07:39:49;;;;;;;;;;;21.50;99.90;;;;;;5031672;28;20008;-82
2023/07/15 07:42:15;;;;;;;;;;;21.50;99.90;;;;;;5028957;28;20024;-83
2023/07/15 07:44:40;;;;;;;;;;;21.50;99.90;;;;;;5006223;28;19928;-81
2023/07/15 07:47:06;;;;;;;;;;;21.50;99.90;;;;;;5044278;28;19932;-81
2023/07/15 07:49:31;;;;;;;;;;;21.50;99.90;;;;;;5026630;28;19928;-83
2023/07/15 07:51:57;;;;;;;;;;;21.60;99.90;;;;;;5024258;28;19929;-82
2023/07/15 07:54:23;;;;;;;;;;;21.70;99.90;;;;;;5049205;28;19931;-81
2023/07/15 07:56:48;;;;;;;;;;;21.90;99.90;;;;;;5017870;28;19924;-84
2023/07/15 07:59:14;;;;;;;;;;;21.50;1.00;;;;;;5038722;28;19924;-81
2023/07/15 08:01:40;;;;;;;;;;;21.90;99.90;;;;;;5015676;28;20193;-82
2023/07/15 08:04:05;;;;;;;;;;;21.90;99.90;;;;;;5031162;28;19951;-84
2023/07/15 08:06:31;;;;;;;;;;;22.00;99.90;;;;;;5033735;28;19993;-81
2023/07/15 08:08:56;;;;;;;;;;;22.10;99.90;;;;;;5045153;28;20041;-84
2023/07/15 08:11:22;;;;;;;;;;;22.30;99.90;;;;;;5005788;28;20330;-81
2023/07/15 08:13:48;;;;;;;;;;;22.50;19.30;;;;;;5033974;28;20087;-82
2023/07/15 08:16:32;;;;;;;;;;;22.60;99.90;;;;;;5029942;28;20106;-84
2023/07/15 08:18:58;;;;;;;;;;;22.70;99.90;;;;;;5028226;28;19998;-84
2023/07/15 08:21:26;;;;;;;;;;;22.80;9.10;;;;;;5028636;28;19932;-82
2023/07/15 08:23:52;;;;;;;;;;;22.80;1.00;;;;;;5066055;28;20322;-82
2023/07/15 08:26:17;;;;;;;;;;;22.80;99.90;;;;;;5047903;28;19928;-82
2023/07/15 08:28:43;;;;;;;;;;;22.90;1.00;;;;;;5027302;28;19936;-85
2023/07/15 08:31:09;;;;;;;;;;;23.00;26.60;;;;;;5021745;28;19932;-84
2023/07/15 08:33:34;;;;;;;;;;;23.10;99.90;;;;;;5054911;28;19944;-82
2023/07/15 08:36:00;;;;;;;;;;;23.10;99.90;;;;;;5027743;28;19929;-82
2023/07/15 08:38:25;;;;;;;;;;;23.00;99.90;;;;;;5030729;28;19965;-83
2023/07/15 08:40:57;;;;;;;;;;;23.00;99.90;;;;;;5030093;28;20461;-83
2023/07/15 08:43:23;;;;;;;;;;;23.10;1.00;;;;;;5029280;28;19929;-83
2023/07/15 08:45:57;;;;;;;;;;;23.20;99.90;;;;;;5028065;28;20398;-82
2023/07/15 08:48:22;;;;;;;;;;;23.20;99.90;;;;;;5061227;28;19935;-83
2023/07/15 08:50:49;;;;;;;;;;;23.20;99.90;;;;;;5021596;28;19940;-82
2023/07/15 08:53:16;;;;;;;;;;;23.30;1.00;;;;;;5031511;28;19939;-82
2023/07/15 08:55:41;;;;;;;;;;;23.40;1.00;;;;;;5028894;28;19998;-82
2023/07/15 08:58:07;;;;;;;;;;;23.50;1.00;;;;;;5012578;28;21682;-84
2023/07/15 09:00:33;;;;;;;;;;;23.60;99.90;;;;;;5040490;28;19976;-82
2023/07/15 09:02:58;;;;;;;;;;;23.60;99.90;;;;;;5012574;28;19928;-83
2023/07/15 09:05:24;;;;;;;;;;;23.60;1.00;;;;;;5062588;28;19929;-85
2023/07/15 09:07:53;;;;;;;;;;;23.70;1.00;;;;;;5027610;28;19939;-82
2023/07/15 09:10:18;;;;;;;;;;;23.70;99.90;;;;;;5024071;28;19935;-82
2023/07/15 09:12:45;;;;;;;;;;;23.90;99.90;;;;;;5011632;28;19929;-81
2023/07/15 09:15:13;;;;;;;;;;;23.90;91.70;;;;;;5042526;28;19932;-82
2023/07/15 09:17:39;;;;;;;;;;;24.00;1.00;;;;;;5061459;28;19997;-85
2023/07/15 09:20:12;;;;;;;;;;;24.10;99.90;;;;;;5027269;28;19932;-83
2023/07/15 09:22:39;;;;;;;;;;;24.20;50.20;;;;;;5029115;28;20312;-82
2023/07/15 09:25:04;;;;;;;;;;;24.30;54.00;;;;;;5013597;28;19932;-86
2023/07/15 09:27:30;;;;;;;;;;;24.40;1.00;;;;;;5034413;28;19929;-81
2023/07/15 09:29:56;;;;;;;;;;;24.40;1.00;;;;;;5023803;28;20400;-85
2023/07/15 09:32:24;;;;;;;;;;;24.60;1.00;;;;;;5027144;28;19940;-82
2023/07/15 09:34:52;;;;;;;;;;;24.70;99.90;;;;;;5010432;28;20302;-82
2023/07/15 09:37:28;;;;;;;;;;;24.80;99.90;;;;;;5040207;28;19944;-81
2023/07/15 09:40:07;;;;;;;;;;;25.10;99.90;;;;;;5053415;28;19936;-78
2023/07/15 09:43:00;;;;;;;;;;;25.20;1.00;;;;;;5046746;28;19936;-78
2023/07/15 09:45:32;;;;;;;;;;;25.50;1.00;;;;;;4999294;28;20064;-77
2023/07/15 09:47:58;;;;;;;;;;;25.90;99.90;;;;;;5058668;28;20396;-77
2023/07/15 09:50:25;;;;;;;;;;;26.10;99.90;;;;;;5022107;28;19976;-77
2023/07/15 09:52:53;;;;;;;;;;;26.10;99.90;;;;;;5055603;28;19938;-77
2023/07/15 09:55:19;;;;;;;;;;;26.20;99.90;;;;;;5023889;28;19944;-77
2023/07/15 09:57:45;;;;;;;;;;;26.20;99.90;;;;;;5047875;28;19936;-78
2023/07/15 10:00:18;;;;;;;;;;;26.20;99.90;;;;;;5025335;28;19943;-78
2023/07/15 10:02:46;;;;;;;;;;;26.10;99.90;;;;;;5030298;28;20029;-77
2023/07/15 10:05:15;;;;;;;;;;;26.00;99.90;;;;;;5045170;28;19928;-78
2023/07/15 10:07:40;;;;;;;;;;;25.80;99.90;;;;;;5012939;28;19929;-77
2023/07/15 10:10:07;;;;;;;;;;;25.70;99.90;;;;;;5009780;28;19924;-78
2023/07/15 10:12:34;;;;;;;;;;;25.70;99.90;;;;;;5058862;28;19955;-78
2023/07/15 10:15:00;;;;;;;;;;;25.60;99.90;;;;;;5028288;28;19935;-77
2023/07/15 10:17:33;;;;;;;;;;;25.50;99.90;;;;;;5014021;28;19924;-78
2023/07/15 10:20:13;;;;;;;;;;;25.40;99.90;;;;;;5035434;28;20359;-78
2023/07/15 10:22:39;;;;;;;;;;;25.40;99.90;;;;;;5065009;28;19966;-78
2023/07/15 10:25:07;;;;;;;;;;;25.40;99.90;;;;;;5044712;28;19933;-78
2023/07/15 10:27:33;;;;;;;;;;;25.50;94.20;;;;;;5030532;28;19936;-77
2023/07/15 10:30:18;;;;;;;;;;;25.60;99.90;;;;;;5062054;28;19991;-79
2023/07/15 10:33:05;;;;;;;;;;;25.90;94.80;;;;;;5046910;28;19924;-77
2023/07/15 10:35:32;;;;;;;;;;;26.10;42.90;;;;;;5065231;28;20023;-78
2023/07/15 10:38:16;;;;;;;;;;;26.40;78.70;;;;;;5031209;28;19932;-77
2023/07/15 10:40:49;;;;;;;;;;;26.30;13.70;;;;;;5021847;28;19925;-77
2023/07/15 10:43:18;;;;;;;;;;;26.20;1.00;;;;;;5026670;28;19929;-78
2023/07/15 10:45:49;;;;;;;;;;;26.10;1.00;;;;;;5026196;28;19932;-78
2023/07/15 10:48:15;;;;;;;;;;;26.10;1.00;;;;;;5045428;28;19937;-77
2023/07/15 10:50:40;;;;;;;;;;;26.10;1.00;;;;;;5036145;28;19981;-78
2023/07/15 10:53:26;;;;;;;;;;;26.00;1.00;;;;;;5063067;28;19998;-78
2023/07/15 10:55:54;;;;;;;;;;;25.90;1.00;;;;;;5021352;28;19932;-79
2023/07/15 10:58:20;;;;;;;;;;;25.90;1.00;;;;;;5043671;28;19928;-78
2023/07/15 11:00:47;;;;;;;;;;;25.90;1.00;;;;;;5043395;28;19944;-79
2023/07/15 11:03:13;;;;;;;;;;;25.90;1.00;;;;;;5010163;28;19929;-79
2023/07/15 11:05:38;;;;;;;;;;;26.20;1.00;;;;;;5034732;28;20283;-79
2023/07/15 11:08:04;;;;;;;;;;;26.50;1.00;;;;;;5009758;28;19933;-77
2023/07/15 11:10:33;;;;;;;;;;;26.60;1.00;;;;;;5027606;28;19960;-79
2023/07/15 11:13:15;;;;;;;;;;;26.70;1.00;;;;;;5027587;28;20083;-78
2023/07/15 11:15:43;;;;;;;;;;;26.70;1.00;;;;;;5027097;28;19928;-80
2023/07/15 11:18:21;;;;;;;;;;;26.80;1.00;;;;;;5025609;28;20359;-79
2023/07/15 11:20:47;;;;;;;;;;;26.80;1.00;;;;;;5008960;28;19940;-79
2023/07/15 11:23:13;;;;;;;;;;;26.80;1.00;;;;;;5013360;28;20398;-78
2023/07/15 11:25:39;;;;;;;;;;;26.80;1.00;;;;;;5012626;28;20015;-79
2023/07/15 11:28:05;;;;;;;;;;;26.70;1.00;;;;;;5014462;28;20039;-78
2023/07/15 11:30:37;;;;;;;;;;;26.50;1.00;;;;;;5013003;28;19976;-78
2023/07/15 11:33:03;;;;;;;;;;;26.30;1.00;;;;;;5027076;28;19929;-79
2023/07/15 11:35:29;;;;;;;;;;;26.20;1.00;;;;;;5027733;28;19935;-78
2023/07/15 11:37:55;;;;;;;;;;;26.20;1.00;;;;;;5065058;28;19928;-79
2023/07/15 11:40:21;;;;;;;;;;;26.30;1.00;;;;;;5040289;28;20006;-79
2023/07/15 11:42:48;;;;;;;;;;;26.30;1.00;;;;;;5026799;28;20015;-79
2023/07/15 11:45:13;;;;;;;;;;;26.30;1.00;;;;;;5026878;28;19959;-78
2023/07/15 11:47:41;;;;;;;;;;;26.30;1.00;;;;;;5013536;28;19925;-79
2023/07/15 11:50:10;;;;;;;;;;;26.50;1.00;;;;;;5044574;28;19928;-78
2023/07/15 11:52:41;;;;;;;;;;;26.60;1.00;;;;;;5046144;28;19936;-78
2023/07/15 11:55:07;;;;;;;;;;;26.90;1.00;;;;;;5042149;28;20031;-78
2023/07/15 11:57:40;;;;;;;;;;;27.10;1.00;;;;;;5026828;28;19924;-78
2023/07/15 12:00:08;;;;;;;;;;;27.40;1.00;;;;;;5029660;28;20002;-79
2023/07/15 12:02:35;;;;;;;;;;;27.80;1.00;;;;;;5029215;28;19932;-79
2023/07/15 12:05:01;;;;;;;;;;;27.80;1.00;;;;;;5029244;28;19928;-80
2023/07/15 12:07:26;;;;;;;;;;;28.00;1.00;;;;;;5044585;28;19925;-79
2023/07/15 12:10:08;;;;;;;;;;;27.90;1.00;;;;;;5043956;28;19929;-78
2023/07/15 12:12:33;;;;;;;;;;;28.00;1.00;;;;;;5043436;28;19943;-78
2023/07/15 12:14:59;;;;;;;;;;;28.20;1.00;;;;;;5048198;28;19929;-78
2023/07/15 12:17:25;;;;;;;;;;;28.20;1.00;;;;;;5031902;28;19928;-78
2023/07/15 12:19:50;;;;;;;;;;;28.40;1.00;;;;;;5026686;28;19933;-79
2023/07/15 12:22:16;;;;;;;;;;;28.70;1.00;;;;;;5013718;28;21750;-79
2023/07/15 12:24:42;;;;;;;;;;;28.80;1.00;;;;;;5032580;28;20032;-79
2023/07/15 12:27:07;;;;;;;;;;;29.00;1.00;;;;;;5012179;28;19925;-78
2023/07/15 12:29:33;;;;;;;;;;;29.30;1.00;;;;;;5014500;28;19931;-79
2023/07/15 12:31:58;;;;;;;;;;;29.40;1.00;;;;;;5045767;28;19929;-79
2023/07/15 12:34:24;;;;;;;;;;;29.50;1.00;;;;;;5012294;28;19939;-78
2023/07/15 12:36:50;;;;;;;;;;;29.40;1.00;;;;;;5045833;28;19925;-80
2023/07/15 12:39:16;;;;;;;;;;;29.50;1.00;;;;;;5033523;28;19936;-79
2023/07/15 12:41:41;;;;;;;;;;;29.70;1.00;;;;;;5018155;28;19928;-79
2023/07/15 12:44:12;;;;;;;;;;;29.80;1.00;;;;;;5061239;28;19933;-79
2023/07/15 12:46:37;;;;;;;;;;;30.00;1.00;;;;;;5042919;28;19940;-79
2023/07/15 12:49:03;;;;;;;;;;;30.20;99.90;;;;;;5030371;28;19951;-78
2023/07/15 12:51:28;;;;;;;;;;;30.40;1.00;;;;;;5030450;28;19920;-79
2023/07/15 12:53:54;;;;;;;;;;;30.50;99.90;;;;;;5023957;28;20011;-78
2023/07/15 12:56:21;;;;;;;;;;;30.70;99.90;;;;;;5054560;28;19931;-79
2023/07/15 12:58:47;;;;;;;;;;;31.00;99.90;;;;;;5039460;28;19928;-79
2023/07/15 13:01:12;;;;;;;;;;;31.30;99.90;;;;;;5033906;28;20059;-79
2023/07/15 13:03:38;;;;;;;;;;;31.50;99.90;;;;;;5069234;28;19977;-79
2023/07/15 13:06:05;;;;;;;;;;;31.50;99.90;;;;;;5063318;28;19932;-79
2023/07/15 13:08:30;;;;;;;;;;;31.60;99.90;;;;;;5037564;28;19932;-79
2023/07/15 13:10:56;;;;;;;;;;;31.60;99.90;;;;;;5034916;28;19951;-79
2023/07/15 13:13:22;;;;;;;;;;;31.60;99.90;;;;;;5049111;28;20303;-79
2023/07/15 13:15:47;;;;;;;;;;;31.50;99.90;;;;;;5072489;28;19928;-80
2023/07/15 13:18:13;;;;;;;;;;;31.50;99.90;;;;;;5017710;28;19930;-80
2023/07/15 13:20:39;;;;;;;;;;;31.50;99.90;;;;;;5030975;28;19978;-77
2023/07/15 13:23:04;;;;;;;;;;;31.40;99.90;;;;;;5034743;28;19929;-80
2023/07/15 13:25:30;;;;;;;;;;;31.30;99.90;;;;;;5033420;28;19971;-79
2023/07/15 13:27:55;;;;;;;;;;;31.20;99.90;;;;;;5035555;28;19993;-79
2023/07/15 13:30:21;;;;;;;;;;;31.30;99.90;;;;;;5032467;28;19928;-79
2023/07/15 13:32:47;;;;;;;;;;;31.30;99.90;;;;;;5034179;28;19940;-79
2023/07/15 13:35:13;;;;;;;;;;;31.50;99.90;;;;;;5034263;28;20016;-79
2023/07/15 13:37:38;;;;;;;;;;;31.40;99.90;;;;;;5035167;28;20014;-79
2023/07/15 13:40:05;;;;;;;;;;;31.50;99.90;;;;;;5063005;28;19936;-79
2023/07/15 13:42:31;;;;;;;;;;;31.70;99.90;;;;;;5018719;28;20344;-79
2023/07/15 13:44:56;;;;;;;;;;;31.90;99.90;;;;;;5052996;28;19940;-79
2023/07/15 13:47:22;;;;;;;;;;;32.10;99.90;;;;;;5072002;28;19924;-79
2023/07/15 13:49:48;;;;;;;;;;;32.10;99.90;;;;;;5030978;28;19944;-79
2023/07/15 13:52:13;;;;;;;;;;;32.10;99.90;;;;;;5048304;28;19932;-79
2023/07/15 13:54:39;;;;;;;;;;;32.00;99.90;;;;;;5013127;28;19933;-78
2023/07/15 13:57:05;;;;;;;;;;;32.00;99.90;;;;;;5053942;28;20384;-79
2023/07/15 13:59:30;;;;;;;;;;;31.90;99.90;;;;;;5028672;28;20015;-79
2023/07/15 14:01:56;;;;;;;;;;;32.00;99.90;;;;;;5024802;28;19936;-80
2023/07/15 14:04:21;;;;;;;;;;;32.00;99.90;;;;;;5020821;28;19971;-79
2023/07/15 14:06:48;;;;;;;;;;;32.00;99.90;;;;;;5022311;28;19920;-79
2023/07/15 14:09:14;;;;;;;;;;;32.00;99.90;;;;;;5023142;28;19936;-80
2023/07/15 14:11:40;;;;;;;;;;;32.10;99.90;;;;;;5011857;28;20094;-80
2023/07/15 14:14:05;;;;;;;;;;;31.90;99.90;;;;;;5014560;28;19967;-79
2023/07/15 14:16:31;;;;;;;;;;;31.60;99.90;;;;;;5053506;28;19924;-79
2023/07/15 14:18:57;;;;;;;;;;;31.20;99.90;;;;;;5056685;28;20449;-79
2023/07/15 14:21:23;;;;;;;;;;;30.90;99.90;;;;;;5046477;28;20061;-79